PWSweather.com
Personal Weather Stations
Station Observations
AC5CV
Greenleaf Peninsula, Waco, TX 76710

Greenleaf PeninsulaWaco, TX 76710

Lat: 31.565, Lon: -97.198

Elevation: 570

Station Type: Ambient WS2080

http://johnchamber.dyndns.info/

High Low Average
Temperature 91.6°F33.1°C 74.3°F23.5°C 81.9°F27.7°C
Dew Point 74.0°F23.3°C 64.2°F17.9°C 70.6°F21.4°C
Winds 7.2 mph 11.6 kmh Calm Calm 2.0 mph ESE3.2 kmh ESE
Wind Gusts 12.3 mph19.8 kmh -- 5.0 mph8.0 kmh
Humidity 96% 42% 71%
Pressure 29.43 in996.6 mb 29.30 in992.2 mb -
Precipitation 0.00 in0.0 mm - -
Hour Temp Dew Point Humidity Winds Wind Gusts Pressure Precip Precip Rate Daily Precip Total
12:00 AM 75.8°F24.3°C 72.7°F22.6°C 90% Calm Calm -- 29.41 in995.9 mb 0.00 in0.0 mm 0.00 in0.0 mm 0.00 in0.0 mm
12:05 AM 75.7°F24.3°C 72.6°F22.6°C 90% Calm Calm -- 29.41 in995.9 mb 0.00 in0.0 mm 0.00 in0.0 mm 0.00 in0.0 mm
12:10 AM 75.7°F24.3°C 72.5°F22.5°C 90% Calm Calm -- 29.41 in995.9 mb 0.00 in0.0 mm 0.00 in0.0 mm 0.00 in0.0 mm
12:15 AM 75.6°F24.2°C 72.5°F22.5°C 90% Calm Calm -- 29.41 in995.9 mb 0.00 in0.0 mm 0.00 in0.0 mm 0.00 in0.0 mm
12:20 AM 75.6°F24.2°C 72.4°F22.4°C 90% Calm Calm -- 29.41 in995.9 mb 0.00 in0.0 mm 0.00 in0.0 mm 0.00 in0.0 mm
12:25 AM 75.8°F24.3°C 71.8°F22.1°C 88% Calm Calm -- 29.40 in995.6 mb 0.00 in0.0 mm 0.00 in0.0 mm 0.00 in0.0 mm
12:30 AM 76.0°F24.4°C 71.8°F22.1°C 87% Calm Calm -- 29.40 in995.6 mb 0.00 in0.0 mm 0.00 in0.0 mm 0.00 in0.0 mm
12:35 AM 76.6°F24.8°C 72.5°F22.5°C 87% Calm Calm -- 29.40 in995.6 mb 0.00 in0.0 mm 0.00 in0.0 mm 0.00 in0.0 mm
12:40 AM 76.6°F24.8°C 72.5°F22.5°C 87% Calm Calm -- 29.40 in995.6 mb 0.00 in0.0 mm 0.00 in0.0 mm 0.00 in0.0 mm
12:45 AM 76.6°F24.8°C 72.4°F22.4°C 87% Calm Calm -- 29.40 in995.6 mb 0.00 in0.0 mm 0.00 in0.0 mm 0.00 in0.0 mm
12:50 AM 76.6°F24.8°C 72.5°F22.5°C 87% Calm Calm -- 29.40 in995.6 mb 0.00 in0.0 mm 0.00 in0.0 mm 0.00 in0.0 mm
12:55 AM 76.3°F24.6°C 72.5°F22.5°C 88% Calm Calm -- 29.40 in995.6 mb 0.00 in0.0 mm 0.00 in0.0 mm 0.00 in0.0 mm
01:00 AM 76.3°F24.6°C 72.5°F22.5°C 88% Calm Calm -- 29.40 in995.6 mb 0.00 in0.0 mm 0.00 in0.0 mm 0.00 in0.0 mm
01:05 AM 76.3°F24.6°C 72.5°F22.5°C 88% Calm Calm -- 29.40 in995.6 mb 0.00 in0.0 mm 0.00 in0.0 mm 0.00 in0.0 mm
01:10 AM 76.3°F24.6°C 72.9°F22.7°C 89% Calm Calm -- 29.40 in995.6 mb 0.00 in0.0 mm 0.00 in0.0 mm 0.00 in0.0 mm
01:15 AM 76.1°F24.5°C 73.3°F22.9°C 91% Calm Calm -- 29.40 in995.6 mb 0.00 in0.0 mm 0.00 in0.0 mm 0.00 in0.0 mm
01:20 AM 76.1°F24.5°C 73.3°F22.9°C 91% 0.1 mph W0.2 kmh W 2.5 mph4.0 kmh 29.40 in995.6 mb 0.00 in0.0 mm 0.00 in0.0 mm 0.00 in0.0 mm
01:25 AM 76.1°F24.5°C 73.6°F23.1°C 92% Calm Calm -- 29.40 in995.6 mb 0.00 in0.0 mm 0.00 in0.0 mm 0.00 in0.0 mm
01:30 AM 75.9°F24.4°C 73.4°F23.0°C 92% Calm Calm -- 29.40 in995.6 mb 0.00 in0.0 mm 0.00 in0.0 mm 0.00 in0.0 mm
01:35 AM 75.2°F24.0°C 72.7°F22.6°C 92% Calm Calm -- 29.39 in995.3 mb 0.00 in0.0 mm 0.00 in0.0 mm 0.00 in0.0 mm
01:40 AM 75.2°F24.0°C 72.8°F22.7°C 92% Calm Calm -- 29.39 in995.3 mb 0.00 in0.0 mm 0.00 in0.0 mm 0.00 in0.0 mm
01:45 AM 75.2°F24.0°C 73.2°F22.9°C 94% Calm Calm -- 29.39 in995.3 mb 0.00 in0.0 mm 0.00 in0.0 mm 0.00 in0.0 mm
01:50 AM 75.0°F23.9°C 73.2°F22.9°C 94% Calm Calm -- 29.39 in995.3 mb 0.00 in0.0 mm 0.00 in0.0 mm 0.00 in0.0 mm
01:55 AM 74.7°F23.7°C 72.9°F22.7°C 94% Calm Calm -- 29.40 in995.6 mb 0.00 in0.0 mm 0.00 in0.0 mm 0.00 in0.0 mm
02:00 AM 74.7°F23.7°C 73.0°F22.8°C 94% Calm Calm -- 29.40 in995.6 mb 0.00 in0.0 mm 0.00 in0.0 mm 0.00 in0.0 mm
02:05 AM 74.7°F23.7°C 73.2°F22.9°C 95% Calm Calm -- 29.40 in995.6 mb 0.00 in0.0 mm 0.00 in0.0 mm 0.00 in0.0 mm
02:10 AM 74.7°F23.7°C 73.2°F22.9°C 95% Calm Calm -- 29.39 in995.3 mb 0.00 in0.0 mm 0.00 in0.0 mm 0.00 in0.0 mm
02:15 AM 74.5°F23.6°C 73.0°F22.8°C 95% Calm Calm -- 29.39 in995.3 mb 0.00 in0.0 mm 0.00 in0.0 mm 0.00 in0.0 mm
02:20 AM 74.5°F23.6°C 73.0°F22.8°C 95% Calm Calm -- 29.39 in995.3 mb 0.00 in0.0 mm 0.00 in0.0 mm 0.00 in0.0 mm
02:25 AM 74.5°F23.6°C 73.0°F22.8°C 95% Calm Calm -- 29.39 in995.3 mb 0.00 in0.0 mm 0.00 in0.0 mm 0.00 in0.0 mm
02:30 AM 74.3°F23.5°C 72.8°F22.7°C 95% Calm Calm -- 29.39 in995.3 mb 0.00 in0.0 mm 0.00 in0.0 mm 0.00 in0.0 mm
02:35 AM 74.8°F23.8°C 73.3°F22.9°C 95% Calm Calm -- 29.39 in995.3 mb 0.00 in0.0 mm 0.00 in0.0 mm 0.00 in0.0 mm
02:40 AM 74.8°F23.8°C 73.2°F22.9°C 95% Calm Calm -- 29.39 in995.3 mb 0.00 in0.0 mm 0.00 in0.0 mm 0.00 in0.0 mm
02:45 AM 74.7°F23.7°C 73.2°F22.9°C 95% Calm Calm -- 29.39 in995.3 mb 0.00 in0.0 mm 0.00 in0.0 mm 0.00 in0.0 mm
02:50 AM 74.7°F23.7°C 73.2°F22.9°C 95% Calm Calm -- 29.39 in995.3 mb 0.00 in0.0 mm 0.00 in0.0 mm 0.00 in0.0 mm
02:55 AM 74.6°F23.7°C 73.1°F22.8°C 95% Calm Calm -- 29.39 in995.3 mb 0.00 in0.0 mm 0.00 in0.0 mm 0.00 in0.0 mm
03:00 AM 74.5°F23.6°C 73.0°F22.8°C 95% Calm Calm -- 29.39 in995.3 mb 0.00 in0.0 mm 0.00 in0.0 mm 0.00 in0.0 mm
03:05 AM 74.5°F23.6°C 73.0°F22.8°C 95% Calm Calm -- 29.39 in995.3 mb 0.00 in0.0 mm 0.00 in0.0 mm 0.00 in0.0 mm
03:10 AM 74.5°F23.6°C 73.1°F22.8°C 95% Calm Calm 2.5 mph4.0 kmh 29.39 in995.3 mb 0.00 in0.0 mm 0.00 in0.0 mm 0.00 in0.0 mm
03:15 AM 74.7°F23.7°C 73.5°F23.1°C 96% Calm Calm -- 29.39 in995.3 mb 0.00 in0.0 mm 0.00 in0.0 mm 0.00 in0.0 mm
03:20 AM 74.8°F23.8°C 73.6°F23.1°C 96% Calm Calm -- 29.38 in994.9 mb 0.00 in0.0 mm 0.00 in0.0 mm 0.00 in0.0 mm
03:25 AM 74.7°F23.7°C 73.5°F23.1°C 96% Calm Calm -- 29.38 in994.9 mb 0.00 in0.0 mm 0.00 in0.0 mm 0.00 in0.0 mm
03:30 AM 74.7°F23.7°C 73.5°F23.1°C 96% Calm Calm -- 29.38 in994.9 mb 0.00 in0.0 mm 0.00 in0.0 mm 0.00 in0.0 mm
03:35 AM 74.7°F23.7°C 73.5°F23.1°C 96% Calm Calm -- 29.39 in995.3 mb 0.00 in0.0 mm 0.00 in0.0 mm 0.00 in0.0 mm
03:40 AM 74.7°F23.7°C 73.5°F23.1°C 96% Calm Calm -- 29.38 in994.9 mb 0.00 in0.0 mm 0.00 in0.0 mm 0.00 in0.0 mm
03:45 AM 74.7°F23.7°C 73.5°F23.1°C 96% Calm Calm -- 29.38 in994.9 mb 0.00 in0.0 mm 0.00 in0.0 mm 0.00 in0.0 mm
03:50 AM 74.7°F23.7°C 73.5°F23.1°C 96% Calm Calm -- 29.37 in994.6 mb 0.00 in0.0 mm 0.00 in0.0 mm 0.00 in0.0 mm
03:55 AM 74.8°F23.8°C 73.5°F23.1°C 96% 0.2 mph N0.3 kmh N 2.5 mph4.0 kmh 29.38 in994.9 mb 0.00 in0.0 mm 0.00 in0.0 mm 0.00 in0.0 mm
04:00 AM 74.8°F23.8°C 73.6°F23.1°C 96% 0.5 mph N0.8 kmh N 2.5 mph4.0 kmh 29.37 in994.6 mb 0.00 in0.0 mm 0.00 in0.0 mm 0.00 in0.0 mm
04:05 AM 74.8°F23.8°C 73.6°F23.1°C 96% Calm Calm -- 29.37 in994.6 mb 0.00 in0.0 mm 0.00 in0.0 mm 0.00 in0.0 mm
04:10 AM 74.8°F23.8°C 73.6°F23.1°C 96% 0.1 mph NNE0.2 kmh NNE 2.5 mph4.0 kmh 29.38 in994.9 mb 0.00 in0.0 mm 0.00 in0.0 mm 0.00 in0.0 mm
04:15 AM 74.7°F23.7°C 73.5°F23.1°C 96% 0.6 mph N1.0 kmh N 2.5 mph4.0 kmh 29.37 in994.6 mb 0.00 in0.0 mm 0.00 in0.0 mm 0.00 in0.0 mm
04:20 AM 74.7°F23.7°C 73.5°F23.1°C 96% 0.3 mph NE0.5 kmh NE 2.5 mph4.0 kmh 29.38 in994.9 mb 0.00 in0.0 mm 0.00 in0.0 mm 0.00 in0.0 mm
04:25 AM 74.7°F23.7°C 73.5°F23.1°C 96% 1.1 mph N1.8 kmh N 4.9 mph7.9 kmh 29.38 in994.9 mb 0.00 in0.0 mm 0.00 in0.0 mm 0.00 in0.0 mm
04:30 AM 74.7°F23.7°C 73.5°F23.1°C 96% 0.5 mph N0.8 kmh N 2.5 mph4.0 kmh 29.37 in994.6 mb 0.00 in0.0 mm 0.00 in0.0 mm 0.00 in0.0 mm
04:35 AM 74.7°F23.7°C 73.5°F23.1°C 96% 0.1 mph NNW0.2 kmh NNW 2.5 mph4.0 kmh 29.37 in994.6 mb 0.00 in0.0 mm 0.00 in0.0 mm 0.00 in0.0 mm
04:40 AM 74.7°F23.7°C 73.5°F23.1°C 96% 1.5 mph NNE2.4 kmh NNE 4.9 mph7.9 kmh 29.38 in994.9 mb 0.00 in0.0 mm 0.00 in0.0 mm 0.00 in0.0 mm
04:45 AM 74.7°F23.7°C 73.5°F23.1°C 96% 0.4 mph N0.6 kmh N 2.5 mph4.0 kmh 29.38 in994.9 mb 0.00 in0.0 mm 0.00 in0.0 mm 0.00 in0.0 mm
04:50 AM 74.7°F23.7°C 73.5°F23.1°C 96% 0.8 mph N1.3 kmh N 2.5 mph4.0 kmh 29.38 in994.9 mb 0.00 in0.0 mm 0.00 in0.0 mm 0.00 in0.0 mm
04:55 AM 74.7°F23.7°C 73.2°F22.9°C 95% 0.9 mph NNE1.4 kmh NNE 2.5 mph4.0 kmh 29.37 in994.6 mb 0.00 in0.0 mm 0.00 in0.0 mm 0.00 in0.0 mm
05:00 AM 75.0°F23.9°C 73.5°F23.1°C 95% 0.6 mph N1.0 kmh N 4.9 mph7.9 kmh 29.38 in994.9 mb 0.00 in0.0 mm 0.00 in0.0 mm 0.00 in0.0 mm
05:05 AM 75.0°F23.9°C 73.5°F23.1°C 95% 0.5 mph N0.8 kmh N 2.5 mph4.0 kmh 29.38 in994.9 mb 0.00 in0.0 mm 0.00 in0.0 mm 0.00 in0.0 mm
05:10 AM 75.0°F23.9°C 73.5°F23.1°C 95% 0.8 mph NNE1.3 kmh NNE 2.5 mph4.0 kmh 29.38 in994.9 mb 0.00 in0.0 mm 0.00 in0.0 mm 0.00 in0.0 mm
05:15 AM 75.1°F23.9°C 73.4°F23.0°C 94% 1.5 mph NE2.4 kmh NE 2.5 mph4.0 kmh 29.38 in994.9 mb 0.00 in0.0 mm 0.00 in0.0 mm 0.00 in0.0 mm
05:20 AM 75.2°F24.0°C 73.3°F22.9°C 94% 0.1 mph NNW0.2 kmh NNW 2.5 mph4.0 kmh 29.38 in994.9 mb 0.00 in0.0 mm 0.00 in0.0 mm 0.00 in0.0 mm
05:25 AM 75.1°F23.9°C 73.3°F22.9°C 94% 0.2 mph NE0.3 kmh NE 2.5 mph4.0 kmh 29.38 in994.9 mb 0.00 in0.0 mm 0.00 in0.0 mm 0.00 in0.0 mm
05:30 AM 75.0°F23.9°C 73.3°F22.9°C 94% Calm Calm -- 29.38 in994.9 mb 0.00 in0.0 mm 0.00 in0.0 mm 0.00 in0.0 mm
05:35 AM 75.1°F23.9°C 73.5°F23.1°C 95% 0.8 mph NE1.3 kmh NE 2.5 mph4.0 kmh 29.38 in994.9 mb 0.00 in0.0 mm 0.00 in0.0 mm 0.00 in0.0 mm
05:40 AM 75.2°F24.0°C 73.7°F23.2°C 95% 0.1 mph ENE0.2 kmh ENE 2.5 mph4.0 kmh 29.39 in995.3 mb 0.00 in0.0 mm 0.00 in0.0 mm 0.00 in0.0 mm
05:45 AM 75.2°F24.0°C 73.7°F23.2°C 95% 1.2 mph NE1.9 kmh NE 2.5 mph4.0 kmh 29.38 in994.9 mb 0.00 in0.0 mm 0.00 in0.0 mm 0.00 in0.0 mm
05:50 AM 75.2°F24.0°C 73.7°F23.2°C 95% 1.2 mph NE1.9 kmh NE 4.9 mph7.9 kmh 29.38 in994.9 mb 0.00 in0.0 mm 0.00 in0.0 mm 0.00 in0.0 mm
05:55 AM 75.2°F24.0°C 73.7°F23.2°C 95% 0.3 mph NW0.5 kmh NW 2.5 mph4.0 kmh 29.38 in994.9 mb 0.00 in0.0 mm 0.00 in0.0 mm 0.00 in0.0 mm
06:00 AM 75.4°F24.1°C 73.9°F23.3°C 95% 0.7 mph NE1.1 kmh NE 2.5 mph4.0 kmh 29.38 in994.9 mb 0.00 in0.0 mm 0.00 in0.0 mm 0.00 in0.0 mm
06:05 AM 75.4°F24.1°C 73.9°F23.3°C 95% 0.4 mph ENE0.6 kmh ENE 2.5 mph4.0 kmh 29.39 in995.3 mb 0.00 in0.0 mm 0.00 in0.0 mm 0.00 in0.0 mm
06:10 AM 75.3°F24.1°C 73.7°F23.2°C 95% 0.3 mph ENE0.5 kmh ENE 4.9 mph7.9 kmh 29.39 in995.3 mb 0.00 in0.0 mm 0.00 in0.0 mm 0.00 in0.0 mm
06:15 AM 75.2°F24.0°C 73.7°F23.2°C 95% Calm Calm -- 29.39 in995.3 mb 0.00 in0.0 mm 0.00 in0.0 mm 0.00 in0.0 mm
06:20 AM 75.1°F23.9°C 73.6°F23.1°C 95% 0.3 mph NNE0.5 kmh NNE 2.5 mph4.0 kmh 29.39 in995.3 mb 0.00 in0.0 mm 0.00 in0.0 mm 0.00 in0.0 mm
06:25 AM 75.0°F23.9°C 73.6°F23.1°C 95% Calm Calm -- 29.39 in995.3 mb 0.00 in0.0 mm 0.00 in0.0 mm 0.00 in0.0 mm
06:30 AM 75.0°F23.9°C 73.7°F23.2°C 96% Calm Calm -- 29.39 in995.3 mb 0.00 in0.0 mm 0.00 in0.0 mm 0.00 in0.0 mm
06:35 AM 75.0°F23.9°C 73.7°F23.2°C 96% Calm Calm -- 29.39 in995.3 mb 0.00 in0.0 mm 0.00 in0.0 mm 0.00 in0.0 mm
06:40 AM 75.2°F24.0°C 73.7°F23.2°C 95% Calm Calm -- 29.39 in995.3 mb 0.00 in0.0 mm 0.00 in0.0 mm 0.00 in0.0 mm
06:45 AM 75.2°F24.0°C 73.7°F23.2°C 95% 0.3 mph 0.5 kmh 2.5 mph4.0 kmh 29.39 in995.3 mb 0.00 in0.0 mm 0.00 in0.0 mm 0.00 in0.0 mm
06:50 AM 75.2°F24.0°C 73.7°F23.2°C 95% Calm Calm -- 29.39 in995.3 mb 0.00 in0.0 mm 0.00 in0.0 mm 0.00 in0.0 mm
06:55 AM 75.1°F23.9°C 73.7°F23.2°C 95% Calm Calm -- 29.39 in995.3 mb 0.00 in0.0 mm 0.00 in0.0 mm 0.00 in0.0 mm
07:00 AM 75.2°F24.0°C 73.7°F23.2°C 95% Calm Calm -- 29.39 in995.3 mb 0.00 in0.0 mm 0.00 in0.0 mm 0.00 in0.0 mm
07:05 AM 75.2°F24.0°C 73.7°F23.2°C 95% Calm Calm -- 29.39 in995.3 mb 0.00 in0.0 mm 0.00 in0.0 mm 0.00 in0.0 mm
07:10 AM 75.2°F24.0°C 73.7°F23.2°C 95% Calm Calm 2.5 mph4.0 kmh 29.40 in995.6 mb 0.00 in0.0 mm 0.00 in0.0 mm 0.00 in0.0 mm
07:15 AM 75.4°F24.1°C 73.7°F23.2°C 95% 0.3 mph N0.5 kmh N 2.5 mph4.0 kmh 29.40 in995.6 mb 0.00 in0.0 mm 0.00 in0.0 mm 0.00 in0.0 mm
07:20 AM 75.7°F24.3°C 73.8°F23.2°C 94% 0.4 mph NE0.6 kmh NE 2.5 mph4.0 kmh 29.40 in995.6 mb 0.00 in0.0 mm 0.00 in0.0 mm 0.00 in0.0 mm
07:25 AM 75.7°F24.3°C 73.7°F23.2°C 94% 0.1 mph NW0.2 kmh NW 2.5 mph4.0 kmh 29.40 in995.6 mb 0.00 in0.0 mm 0.00 in0.0 mm 0.00 in0.0 mm
07:30 AM 75.9°F24.4°C 73.3°F22.9°C 92% 0.6 mph NNE1.0 kmh NNE 2.5 mph4.0 kmh 29.40 in995.6 mb 0.00 in0.0 mm 0.00 in0.0 mm 0.00 in0.0 mm
07:35 AM 76.1°F24.5°C 73.2°F22.9°C 91% 0.9 mph NE1.4 kmh NE 2.5 mph4.0 kmh 29.41 in995.9 mb 0.00 in0.0 mm 0.00 in0.0 mm 0.00 in0.0 mm
07:40 AM 77.0°F25.0°C 73.7°F23.2°C 90% 1.0 mph NE1.6 kmh NE 2.5 mph4.0 kmh 29.40 in995.6 mb 0.00 in0.0 mm 0.00 in0.0 mm 0.00 in0.0 mm
07:45 AM 77.0°F25.0°C 73.4°F23.0°C 89% 0.5 mph NNE0.8 kmh NNE 2.5 mph4.0 kmh 29.41 in995.9 mb 0.00 in0.0 mm 0.00 in0.0 mm 0.00 in0.0 mm
07:50 AM 77.0°F25.0°C 73.0°F22.8°C 88% 1.2 mph NE1.9 kmh NE 4.9 mph7.9 kmh 29.41 in995.9 mb 0.00 in0.0 mm 0.00 in0.0 mm 0.00 in0.0 mm
07:55 AM 77.0°F25.0°C 72.8°F22.7°C 87% 1.5 mph NE2.4 kmh NE 4.9 mph7.9 kmh 29.41 in995.9 mb 0.00 in0.0 mm 0.00 in0.0 mm 0.00 in0.0 mm
08:00 AM 77.2°F25.1°C 72.7°F22.6°C 86% 3.3 mph E5.3 kmh E 4.9 mph7.9 kmh 29.41 in995.9 mb 0.00 in0.0 mm 0.00 in0.0 mm 0.00 in0.0 mm
08:05 AM 77.2°F25.1°C 72.7°F22.6°C 86% 1.8 mph NE2.9 kmh NE 4.9 mph7.9 kmh 29.41 in995.9 mb 0.00 in0.0 mm 0.00 in0.0 mm 0.00 in0.0 mm
08:10 AM 77.2°F25.1°C 72.8°F22.7°C 86% 3.7 mph NE6.0 kmh NE 7.4 mph11.9 kmh 29.41 in995.9 mb 0.00 in0.0 mm 0.00 in0.0 mm 0.00 in0.0 mm
08:15 AM 77.2°F25.1°C 73.0°F22.8°C 87% 3.3 mph NE5.3 kmh NE 7.4 mph11.9 kmh 29.41 in995.9 mb 0.00 in0.0 mm 0.00 in0.0 mm 0.00 in0.0 mm
08:20 AM 77.2°F25.1°C 73.2°F22.9°C 88% 2.7 mph ENE4.3 kmh ENE 7.4 mph11.9 kmh 29.41 in995.9 mb 0.00 in0.0 mm 0.00 in0.0 mm 0.00 in0.0 mm
08:25 AM 77.2°F25.1°C 72.5°F22.5°C 85% 2.3 mph E3.7 kmh E 4.9 mph7.9 kmh 29.41 in995.9 mb 0.00 in0.0 mm 0.00 in0.0 mm 0.00 in0.0 mm
08:30 AM 77.4°F25.2°C 72.5°F22.5°C 85% 2.7 mph NE4.3 kmh NE 4.9 mph7.9 kmh 29.42 in996.3 mb 0.00 in0.0 mm 0.00 in0.0 mm 0.00 in0.0 mm
08:35 AM 77.4°F25.2°C 72.5°F22.5°C 85% 3.0 mph N4.8 kmh N 7.4 mph11.9 kmh 29.41 in995.9 mb 0.00 in0.0 mm 0.00 in0.0 mm 0.00 in0.0 mm
08:40 AM 78.6°F25.9°C 73.6°F23.1°C 85% 1.9 mph N3.1 kmh N 4.9 mph7.9 kmh 29.41 in995.9 mb 0.00 in0.0 mm 0.00 in0.0 mm 0.00 in0.0 mm
08:45 AM 78.6°F25.9°C 73.5°F23.1°C 85% 3.3 mph NNE5.3 kmh NNE 4.9 mph7.9 kmh 29.42 in996.3 mb 0.00 in0.0 mm 0.00 in0.0 mm 0.00 in0.0 mm
08:50 AM 78.4°F25.8°C 73.7°F23.2°C 86% 3.1 mph NNE5.0 kmh NNE 7.4 mph11.9 kmh 29.41 in995.9 mb 0.00 in0.0 mm 0.00 in0.0 mm 0.00 in0.0 mm
08:55 AM 78.3°F25.7°C 73.5°F23.1°C 86% 1.3 mph NE2.1 kmh NE 2.5 mph4.0 kmh 29.41 in995.9 mb 0.00 in0.0 mm 0.00 in0.0 mm 0.00 in0.0 mm
09:00 AM 78.8°F26.0°C 73.6°F23.1°C 84% 3.4 mph NE5.5 kmh NE 7.4 mph11.9 kmh 29.42 in996.3 mb 0.00 in0.0 mm 0.00 in0.0 mm 0.00 in0.0 mm
09:05 AM 78.6°F25.9°C 73.7°F23.2°C 85% 2.4 mph N3.9 kmh N 4.9 mph7.9 kmh 29.42 in996.3 mb 0.00 in0.0 mm 0.00 in0.0 mm 0.00 in0.0 mm
09:10 AM 78.6°F25.9°C 73.4°F23.0°C 84% 3.2 mph NNE5.1 kmh NNE 7.4 mph11.9 kmh 29.42 in996.3 mb 0.00 in0.0 mm 0.00 in0.0 mm 0.00 in0.0 mm
09:15 AM 78.4°F25.8°C 73.0°F22.8°C 84% 2.3 mph NNE3.7 kmh NNE 4.9 mph7.9 kmh 29.42 in996.3 mb 0.00 in0.0 mm 0.00 in0.0 mm 0.00 in0.0 mm
09:20 AM 79.3°F26.3°C 73.0°F22.8°C 81% 2.7 mph NNE4.3 kmh NNE 7.4 mph11.9 kmh 29.42 in996.3 mb 0.00 in0.0 mm 0.00 in0.0 mm 0.00 in0.0 mm
09:25 AM 79.3°F26.3°C 73.2°F22.9°C 82% 2.4 mph NNE3.9 kmh NNE 4.9 mph7.9 kmh 29.42 in996.3 mb 0.00 in0.0 mm 0.00 in0.0 mm 0.00 in0.0 mm
09:30 AM 79.3°F26.3°C 73.4°F23.0°C 82% 2.3 mph N3.7 kmh N 7.4 mph11.9 kmh 29.42 in996.3 mb 0.00 in0.0 mm 0.00 in0.0 mm 0.00 in0.0 mm
09:35 AM 79.1°F26.2°C 74.0°F23.3°C 84% 3.5 mph NNW5.6 kmh NNW 7.4 mph11.9 kmh 29.42 in996.3 mb 0.00 in0.0 mm 0.00 in0.0 mm 0.00 in0.0 mm
09:40 AM 77.8°F25.4°C 72.9°F22.7°C 85% 3.8 mph N6.1 kmh N 7.4 mph11.9 kmh 29.42 in996.3 mb 0.00 in0.0 mm 0.00 in0.0 mm 0.00 in0.0 mm
09:45 AM 77.6°F25.3°C 72.3°F22.4°C 84% 3.7 mph NNW6.0 kmh NNW 7.4 mph11.9 kmh 29.42 in996.3 mb 0.00 in0.0 mm 0.00 in0.0 mm 0.00 in0.0 mm
09:50 AM 77.9°F25.5°C 72.0°F22.2°C 82% 3.2 mph N5.1 kmh N 4.9 mph7.9 kmh 29.42 in996.3 mb 0.00 in0.0 mm 0.00 in0.0 mm 0.00 in0.0 mm
09:55 AM 78.2°F25.7°C 71.9°F22.2°C 81% 2.5 mph N4.0 kmh N 7.4 mph11.9 kmh 29.42 in996.3 mb 0.00 in0.0 mm 0.00 in0.0 mm 0.00 in0.0 mm
10:00 AM 79.2°F26.2°C 72.9°F22.7°C 81% 3.5 mph NNW5.6 kmh NNW 7.4 mph11.9 kmh 29.42 in996.3 mb 0.00 in0.0 mm 0.00 in0.0 mm 0.00 in0.0 mm
10:05 AM 79.3°F26.3°C 73.0°F22.8°C 81% 3.2 mph NW5.1 kmh NW 9.8 mph15.8 kmh 29.42 in996.3 mb 0.00 in0.0 mm 0.00 in0.0 mm 0.00 in0.0 mm
10:10 AM 79.3°F26.3°C 72.1°F22.3°C 79% 2.5 mph NNW4.0 kmh NNW 7.4 mph11.9 kmh 29.42 in996.3 mb 0.00 in0.0 mm 0.00 in0.0 mm 0.00 in0.0 mm
10:15 AM 79.5°F26.4°C 71.8°F22.1°C 78% 3.6 mph N5.8 kmh N 7.4 mph11.9 kmh 29.42 in996.3 mb 0.00 in0.0 mm 0.00 in0.0 mm 0.00 in0.0 mm
10:20 AM 80.7°F27.1°C 72.6°F22.6°C 77% 2.0 mph NW3.2 kmh NW 4.9 mph7.9 kmh 29.42 in996.3 mb 0.00 in0.0 mm 0.00 in0.0 mm 0.00 in0.0 mm
10:25 AM 81.3°F27.4°C 73.2°F22.9°C 76% 2.6 mph N4.2 kmh N 7.4 mph11.9 kmh 29.43 in996.6 mb 0.00 in0.0 mm 0.00 in0.0 mm 0.00 in0.0 mm
10:30 AM 81.3°F27.4°C 72.6°F22.6°C 75% 3.2 mph N5.1 kmh N 7.4 mph11.9 kmh 29.43 in996.6 mb 0.00 in0.0 mm 0.00 in0.0 mm 0.00 in0.0 mm
10:35 AM 81.3°F27.4°C 72.3°F22.4°C 74% 2.6 mph N4.2 kmh N 4.9 mph7.9 kmh 29.43 in996.6 mb 0.00 in0.0 mm 0.00 in0.0 mm 0.00 in0.0 mm
10:40 AM 82.2°F27.9°C 72.5°F22.5°C 73% 4.5 mph NNW7.2 kmh NNW 9.8 mph15.8 kmh 29.42 in996.3 mb 0.00 in0.0 mm 0.00 in0.0 mm 0.00 in0.0 mm
10:45 AM 82.7°F28.2°C 73.3°F22.9°C 73% 2.0 mph N3.2 kmh N 4.9 mph7.9 kmh 29.42 in996.3 mb 0.00 in0.0 mm 0.00 in0.0 mm 0.00 in0.0 mm
10:50 AM 82.5°F28.1°C 73.5°F23.1°C 74% 3.0 mph N4.8 kmh N 7.4 mph11.9 kmh 29.42 in996.3 mb 0.00 in0.0 mm 0.00 in0.0 mm 0.00 in0.0 mm
10:55 AM 82.4°F28.0°C 72.8°F22.7°C 73% 3.5 mph NNW5.6 kmh NNW 9.8 mph15.8 kmh 29.43 in996.6 mb 0.00 in0.0 mm 0.00 in0.0 mm 0.00 in0.0 mm
11:00 AM 82.7°F28.2°C 73.0°F22.8°C 73% 3.0 mph N4.8 kmh N 4.9 mph7.9 kmh 29.43 in996.6 mb 0.00 in0.0 mm 0.00 in0.0 mm 0.00 in0.0 mm
11:05 AM 82.8°F28.2°C 73.1°F22.8°C 73% 3.2 mph NNE5.1 kmh NNE 4.9 mph7.9 kmh 29.43 in996.6 mb 0.00 in0.0 mm 0.00 in0.0 mm 0.00 in0.0 mm
11:10 AM 82.9°F28.3°C 72.5°F22.5°C 71% 4.0 mph NNE6.4 kmh NNE 7.4 mph11.9 kmh 29.43 in996.6 mb 0.00 in0.0 mm 0.00 in0.0 mm 0.00 in0.0 mm
11:15 AM 83.1°F28.4°C 72.0°F22.2°C 69% 2.3 mph NE3.7 kmh NE 4.9 mph7.9 kmh 29.42 in996.3 mb 0.00 in0.0 mm 0.00 in0.0 mm 0.00 in0.0 mm
11:20 AM 83.6°F28.7°C 72.0°F22.2°C 68% 3.8 mph NW6.1 kmh NW 7.4 mph11.9 kmh 29.42 in996.3 mb 0.00 in0.0 mm 0.00 in0.0 mm 0.00 in0.0 mm
11:25 AM 84.2°F29.0°C 72.5°F22.5°C 68% 4.0 mph N6.4 kmh N 7.4 mph11.9 kmh 29.42 in996.3 mb 0.00 in0.0 mm 0.00 in0.0 mm 0.00 in0.0 mm
11:30 AM 84.2°F29.0°C 72.9°F22.7°C 69% 4.2 mph N6.8 kmh N 7.4 mph11.9 kmh 29.42 in996.3 mb 0.00 in0.0 mm 0.00 in0.0 mm 0.00 in0.0 mm
11:35 AM 84.0°F28.9°C 73.1°F22.8°C 70% 2.7 mph NE4.3 kmh NE 7.4 mph11.9 kmh 29.42 in996.3 mb 0.00 in0.0 mm 0.00 in0.0 mm 0.00 in0.0 mm
11:40 AM 84.7°F29.3°C 72.1°F22.3°C 66% 3.6 mph N5.8 kmh N 7.4 mph11.9 kmh 29.43 in996.6 mb 0.00 in0.0 mm 0.00 in0.0 mm 0.00 in0.0 mm
11:45 AM 85.6°F29.8°C 71.8°F22.1°C 64% 2.6 mph N4.2 kmh N 7.4 mph11.9 kmh 29.43 in996.6 mb 0.00 in0.0 mm 0.00 in0.0 mm 0.00 in0.0 mm
11:50 AM 85.6°F29.8°C 71.6°F22.0°C 63% 4.1 mph NNE6.6 kmh NNE 7.4 mph11.9 kmh 29.42 in996.3 mb 0.00 in0.0 mm 0.00 in0.0 mm 0.00 in0.0 mm
11:55 AM 85.6°F29.8°C 72.1°F22.3°C 64% 4.1 mph ENE6.6 kmh ENE 7.4 mph11.9 kmh 29.43 in996.6 mb 0.00 in0.0 mm 0.00 in0.0 mm 0.00 in0.0 mm
12:00 PM 85.6°F29.8°C 71.5°F21.9°C 63% 3.5 mph N5.6 kmh N 7.4 mph11.9 kmh 29.42 in996.3 mb 0.00 in0.0 mm 0.00 in0.0 mm 0.00 in0.0 mm
12:05 PM 85.5°F29.7°C 71.9°F22.2°C 64% 4.2 mph N6.8 kmh N 9.8 mph15.8 kmh 29.43 in996.6 mb 0.00 in0.0 mm 0.00 in0.0 mm 0.00 in0.0 mm
12:10 PM 85.5°F29.7°C 71.9°F22.2°C 64% 2.8 mph NE4.5 kmh NE 4.9 mph7.9 kmh 29.42 in996.3 mb 0.00 in0.0 mm 0.00 in0.0 mm 0.00 in0.0 mm
12:15 PM 85.6°F29.8°C 71.2°F21.8°C 62% 3.7 mph N6.0 kmh N 12.3 mph19.8 kmh 29.42 in996.3 mb 0.00 in0.0 mm 0.00 in0.0 mm 0.00 in0.0 mm
12:20 PM 85.9°F29.9°C 71.7°F22.1°C 63% 3.7 mph NE6.0 kmh NE 9.8 mph15.8 kmh 29.42 in996.3 mb 0.00 in0.0 mm 0.00 in0.0 mm 0.00 in0.0 mm
12:25 PM 86.2°F30.1°C 71.6°F22.0°C 62% 2.7 mph NNW4.3 kmh NNW 7.4 mph11.9 kmh 29.42 in996.3 mb 0.00 in0.0 mm 0.00 in0.0 mm 0.00 in0.0 mm
12:30 PM 86.1°F30.1°C 72.2°F22.3°C 64% 3.7 mph N6.0 kmh N 4.9 mph7.9 kmh 29.42 in996.3 mb 0.00 in0.0 mm 0.00 in0.0 mm 0.00 in0.0 mm
12:35 PM 85.8°F29.9°C 72.5°F22.5°C 65% 4.8 mph N7.7 kmh N 9.8 mph15.8 kmh 29.42 in996.3 mb 0.00 in0.0 mm 0.00 in0.0 mm 0.00 in0.0 mm
12:40 PM 86.0°F30.0°C 71.6°F22.0°C 62% 3.5 mph NE5.6 kmh NE 7.4 mph11.9 kmh 29.41 in995.9 mb 0.00 in0.0 mm 0.00 in0.0 mm 0.00 in0.0 mm
12:45 PM 86.1°F30.1°C 72.2°F22.3°C 63% 3.4 mph NNW5.5 kmh NNW 7.4 mph11.9 kmh 29.41 in995.9 mb 0.00 in0.0 mm 0.00 in0.0 mm 0.00 in0.0 mm
12:50 PM 86.0°F30.0°C 71.1°F21.7°C 61% 2.7 mph NE4.3 kmh NE 4.9 mph7.9 kmh 29.41 in995.9 mb 0.00 in0.0 mm 0.00 in0.0 mm 0.00 in0.0 mm
12:55 PM 86.1°F30.1°C 71.2°F21.8°C 61% 4.9 mph NNE7.9 kmh NNE 9.8 mph15.8 kmh 29.41 in995.9 mb 0.00 in0.0 mm 0.00 in0.0 mm 0.00 in0.0 mm
01:00 PM 86.0°F30.0°C 71.2°F21.8°C 62% 4.7 mph NNE7.6 kmh NNE 9.8 mph15.8 kmh 29.41 in995.9 mb 0.00 in0.0 mm 0.00 in0.0 mm 0.00 in0.0 mm
01:05 PM 86.2°F30.1°C 70.7°F21.5°C 60% 4.0 mph N6.4 kmh N 7.4 mph11.9 kmh 29.41 in995.9 mb 0.00 in0.0 mm 0.00 in0.0 mm 0.00 in0.0 mm
01:10 PM 86.3°F30.2°C 70.5°F21.4°C 60% 4.7 mph NNW7.6 kmh NNW 9.8 mph15.8 kmh 29.40 in995.6 mb 0.00 in0.0 mm 0.00 in0.0 mm 0.00 in0.0 mm
01:15 PM 86.4°F30.2°C 69.7°F20.9°C 58% 5.8 mph N9.3 kmh N 9.8 mph15.8 kmh 29.40 in995.6 mb 0.00 in0.0 mm 0.00 in0.0 mm 0.00 in0.0 mm
01:20 PM 86.7°F30.4°C 69.9°F21.1°C 58% 5.0 mph NE8.0 kmh NE 12.3 mph19.8 kmh 29.40 in995.6 mb 0.00 in0.0 mm 0.00 in0.0 mm 0.00 in0.0 mm
01:25 PM 87.6°F30.9°C 69.6°F20.9°C 55% 3.6 mph NE5.8 kmh NE 4.9 mph7.9 kmh 29.40 in995.6 mb 0.00 in0.0 mm 0.00 in0.0 mm 0.00 in0.0 mm
01:30 PM 87.7°F30.9°C 69.6°F20.9°C 55% 3.8 mph N6.1 kmh N 7.4 mph11.9 kmh 29.39 in995.3 mb 0.00 in0.0 mm 0.00 in0.0 mm 0.00 in0.0 mm
01:35 PM 87.8°F31.0°C 70.1°F21.2°C 56% 2.1 mph NNW3.4 kmh NNW 4.9 mph7.9 kmh 29.39 in995.3 mb 0.00 in0.0 mm 0.00 in0.0 mm 0.00 in0.0 mm
01:40 PM 88.0°F31.1°C 69.8°F21.0°C 55% 3.0 mph N4.8 kmh N 7.4 mph11.9 kmh 29.39 in995.3 mb 0.00 in0.0 mm 0.00 in0.0 mm 0.00 in0.0 mm
01:45 PM 88.0°F31.1°C 69.8°F21.0°C 55% 5.8 mph NW9.3 kmh NW 12.3 mph19.8 kmh 29.39 in995.3 mb 0.00 in0.0 mm 0.00 in0.0 mm 0.00 in0.0 mm
01:50 PM 88.0°F31.1°C 69.0°F20.6°C 54% 2.7 mph N4.3 kmh N 7.4 mph11.9 kmh 29.39 in995.3 mb 0.00 in0.0 mm 0.00 in0.0 mm 0.00 in0.0 mm
01:55 PM 88.0°F31.1°C 69.2°F20.7°C 54% 4.7 mph N7.6 kmh N 9.8 mph15.8 kmh 29.39 in995.3 mb 0.00 in0.0 mm 0.00 in0.0 mm 0.00 in0.0 mm
02:00 PM 88.0°F31.1°C 68.8°F20.4°C 53% 3.7 mph NNE6.0 kmh NNE 7.4 mph11.9 kmh 29.39 in995.3 mb 0.00 in0.0 mm 0.00 in0.0 mm 0.00 in0.0 mm
02:05 PM 88.9°F31.6°C 68.3°F20.2°C 51% 3.5 mph N5.6 kmh N 7.4 mph11.9 kmh 29.39 in995.3 mb 0.00 in0.0 mm 0.00 in0.0 mm 0.00 in0.0 mm
02:10 PM 88.9°F31.6°C 69.1°F20.6°C 52% 4.2 mph N6.8 kmh N 7.4 mph11.9 kmh 29.38 in994.9 mb 0.00 in0.0 mm 0.00 in0.0 mm 0.00 in0.0 mm
02:15 PM 88.9°F31.6°C 68.2°F20.1°C 51% 1.4 mph N2.3 kmh N 4.9 mph7.9 kmh 29.38 in994.9 mb 0.00 in0.0 mm 0.00 in0.0 mm 0.00 in0.0 mm
02:20 PM 89.1°F31.7°C 67.8°F19.9°C 50% 2.2 mph NE3.5 kmh NE 7.4 mph11.9 kmh 29.38 in994.9 mb 0.00 in0.0 mm 0.00 in0.0 mm 0.00 in0.0 mm
02:25 PM 89.8°F32.1°C 69.2°F20.7°C 51% 3.5 mph N5.6 kmh N 9.8 mph15.8 kmh 29.37 in994.6 mb 0.00 in0.0 mm 0.00 in0.0 mm 0.00 in0.0 mm
02:30 PM 89.6°F32.0°C 70.1°F21.2°C 53% 4.2 mph N6.8 kmh N 7.4 mph11.9 kmh 29.38 in994.9 mb 0.00 in0.0 mm 0.00 in0.0 mm 0.00 in0.0 mm
02:35 PM 89.5°F31.9°C 69.7°F20.9°C 52% 2.6 mph N4.2 kmh N 4.9 mph7.9 kmh 29.37 in994.6 mb 0.00 in0.0 mm 0.00 in0.0 mm 0.00 in0.0 mm
02:40 PM 89.4°F31.9°C 69.4°F20.8°C 52% 3.4 mph N5.5 kmh N 4.9 mph7.9 kmh 29.37 in994.6 mb 0.00 in0.0 mm 0.00 in0.0 mm 0.00 in0.0 mm
02:45 PM 88.9°F31.6°C 69.7°F20.9°C 53% 3.8 mph NNE6.1 kmh NNE 9.8 mph15.8 kmh 29.37 in994.6 mb 0.00 in0.0 mm 0.00 in0.0 mm 0.00 in0.0 mm
02:50 PM 88.7°F31.5°C 68.9°F20.5°C 52% 3.8 mph NE6.1 kmh NE 9.8 mph15.8 kmh 29.36 in994.2 mb 0.00 in0.0 mm 0.00 in0.0 mm 0.00 in0.0 mm
02:55 PM 88.9°F31.6°C 69.1°F20.6°C 52% 4.6 mph NW7.4 kmh NW 9.8 mph15.8 kmh 29.36 in994.2 mb 0.00 in0.0 mm 0.00 in0.0 mm 0.00 in0.0 mm
03:00 PM 88.7°F31.5°C 69.8°F21.0°C 54% 2.8 mph N4.5 kmh N 4.9 mph7.9 kmh 29.36 in994.2 mb 0.00 in0.0 mm 0.00 in0.0 mm 0.00 in0.0 mm
03:05 PM 88.5°F31.4°C 68.9°F20.5°C 52% 4.0 mph NE6.4 kmh NE 7.4 mph11.9 kmh 29.36 in994.2 mb 0.00 in0.0 mm 0.00 in0.0 mm 0.00 in0.0 mm
03:10 PM 88.6°F31.4°C 68.1°F20.1°C 51% 3.0 mph N4.8 kmh N 7.4 mph11.9 kmh 29.36 in994.2 mb 0.00 in0.0 mm 0.00 in0.0 mm 0.00 in0.0 mm
03:15 PM 88.8°F31.6°C 68.3°F20.2°C 51% 3.2 mph NNE5.1 kmh NNE 7.4 mph11.9 kmh 29.36 in994.2 mb 0.00 in0.0 mm 0.00 in0.0 mm 0.00 in0.0 mm
03:20 PM 88.7°F31.5°C 69.5°F20.8°C 53% 2.4 mph NE3.9 kmh NE 9.8 mph15.8 kmh 29.36 in994.2 mb 0.00 in0.0 mm 0.00 in0.0 mm 0.00 in0.0 mm
03:25 PM 89.2°F31.8°C 68.6°F20.3°C 51% 2.1 mph NW3.4 kmh NW 7.4 mph11.9 kmh 29.36 in994.2 mb 0.00 in0.0 mm 0.00 in0.0 mm 0.00 in0.0 mm
03:30 PM 89.4°F31.9°C 68.1°F20.1°C 50% 3.5 mph NNW5.6 kmh NNW 7.4 mph11.9 kmh 29.36 in994.2 mb 0.00 in0.0 mm 0.00 in0.0 mm 0.00 in0.0 mm
03:35 PM 89.4°F31.9°C 68.9°F20.5°C 51% 2.9 mph N4.7 kmh N 7.4 mph11.9 kmh 29.36 in994.2 mb 0.00 in0.0 mm 0.00 in0.0 mm 0.00 in0.0 mm
03:40 PM 89.7°F32.1°C 68.6°F20.3°C 50% 2.6 mph NW4.2 kmh NW 9.8 mph15.8 kmh 29.36 in994.2 mb 0.00 in0.0 mm 0.00 in0.0 mm 0.00 in0.0 mm
03:45 PM 90.0°F32.2°C 68.7°F20.4°C 50% 3.7 mph N6.0 kmh N 7.4 mph11.9 kmh 29.35 in993.9 mb 0.00 in0.0 mm 0.00 in0.0 mm 0.00 in0.0 mm
03:50 PM 89.9°F32.2°C 69.1°F20.6°C 51% 7.2 mph NE11.6 kmh NE 9.8 mph15.8 kmh 29.35 in993.9 mb 0.00 in0.0 mm 0.00 in0.0 mm 0.00 in0.0 mm
03:55 PM 89.8°F32.1°C 68.9°F20.5°C 50% 3.6 mph NNE5.8 kmh NNE 9.8 mph15.8 kmh 29.34 in993.6 mb 0.00 in0.0 mm 0.00 in0.0 mm 0.00 in0.0 mm
04:00 PM 89.8°F32.1°C 68.1°F20.1°C 49% 0.9 mph N1.4 kmh N 4.9 mph7.9 kmh 29.35 in993.9 mb 0.00 in0.0 mm 0.00 in0.0 mm 0.00 in0.0 mm
04:05 PM 91.3°F32.9°C 68.7°F20.4°C 48% 3.4 mph NW5.5 kmh NW 4.9 mph7.9 kmh 29.34 in993.6 mb 0.00 in0.0 mm 0.00 in0.0 mm 0.00 in0.0 mm
04:10 PM 91.6°F33.1°C 69.3°F20.7°C 48% 4.7 mph NE7.6 kmh NE 7.4 mph11.9 kmh 29.34 in993.6 mb 0.00 in0.0 mm 0.00 in0.0 mm 0.00 in0.0 mm
04:15 PM 91.3°F32.9°C 68.9°F20.5°C 48% 1.7 mph NE2.7 kmh NE 2.5 mph4.0 kmh 29.34 in993.6 mb 0.00 in0.0 mm 0.00 in0.0 mm 0.00 in0.0 mm
04:20 PM 91.2°F32.9°C 69.2°F20.7°C 49% 4.7 mph NNE7.6 kmh NNE 12.3 mph19.8 kmh 29.34 in993.6 mb 0.00 in0.0 mm 0.00 in0.0 mm 0.00 in0.0 mm
04:25 PM 90.6°F32.6°C 68.3°F20.2°C 48% 0.7 mph NE1.1 kmh NE 4.9 mph7.9 kmh 29.34 in993.6 mb 0.00 in0.0 mm 0.00 in0.0 mm 0.00 in0.0 mm
04:30 PM 90.5°F32.5°C 68.4°F20.2°C 48% 2.9 mph NNE4.7 kmh NNE 7.4 mph11.9 kmh 29.34 in993.6 mb 0.00 in0.0 mm 0.00 in0.0 mm 0.00 in0.0 mm
04:35 PM 90.5°F32.5°C 68.3°F20.2°C 48% 3.2 mph NE5.1 kmh NE 7.4 mph11.9 kmh 29.34 in993.6 mb 0.00 in0.0 mm 0.00 in0.0 mm 0.00 in0.0 mm
04:40 PM 90.5°F32.5°C 68.1°F20.1°C 48% 2.7 mph NE4.3 kmh NE 7.4 mph11.9 kmh 29.33 in993.2 mb 0.00 in0.0 mm 0.00 in0.0 mm 0.00 in0.0 mm
04:45 PM 90.4°F32.4°C 68.1°F20.1°C 48% 2.1 mph ENE3.4 kmh ENE 4.9 mph7.9 kmh 29.33 in993.2 mb 0.00 in0.0 mm 0.00 in0.0 mm 0.00 in0.0 mm
04:50 PM 90.3°F32.4°C 67.8°F19.9°C 48% 3.1 mph ENE5.0 kmh ENE 4.9 mph7.9 kmh 29.32 in992.9 mb 0.00 in0.0 mm 0.00 in0.0 mm 0.00 in0.0 mm
04:55 PM 90.5°F32.5°C 68.1°F20.1°C 48% 3.4 mph NE5.5 kmh NE 4.9 mph7.9 kmh 29.32 in992.9 mb 0.00 in0.0 mm 0.00 in0.0 mm 0.00 in0.0 mm
05:00 PM 90.5°F32.5°C 68.1°F20.1°C 48% 2.6 mph ENE4.2 kmh ENE 7.4 mph11.9 kmh 29.32 in992.9 mb 0.00 in0.0 mm 0.00 in0.0 mm 0.00 in0.0 mm
05:05 PM 90.4°F32.4°C 68.0°F20.0°C 48% 4.8 mph N7.7 kmh N 9.8 mph15.8 kmh 29.32 in992.9 mb 0.00 in0.0 mm 0.00 in0.0 mm 0.00 in0.0 mm
05:10 PM 90.3°F32.4°C 67.4°F19.7°C 47% 1.6 mph N2.6 kmh N 4.9 mph7.9 kmh 29.31 in992.6 mb 0.00 in0.0 mm 0.00 in0.0 mm 0.00 in0.0 mm
05:15 PM 90.4°F32.4°C 65.5°F18.6°C 44% 5.0 mph NNW8.0 kmh NNW 7.4 mph11.9 kmh 29.31 in992.6 mb 0.00 in0.0 mm 0.00 in0.0 mm 0.00 in0.0 mm
05:20 PM 90.5°F32.5°C 64.7°F18.2°C 43% 4.2 mph ENE6.8 kmh ENE 9.8 mph15.8 kmh 29.31 in992.6 mb 0.00 in0.0 mm 0.00 in0.0 mm 0.00 in0.0 mm
05:25 PM 91.0°F32.8°C 64.5°F18.1°C 42% 3.7 mph NE6.0 kmh NE 7.4 mph11.9 kmh 29.31 in992.6 mb 0.00 in0.0 mm 0.00 in0.0 mm 0.00 in0.0 mm
05:30 PM 91.2°F32.9°C 66.1°F18.9°C 44% 5.4 mph NE8.7 kmh NE 9.8 mph15.8 kmh 29.31 in992.6 mb 0.00 in0.0 mm 0.00 in0.0 mm 0.00 in0.0 mm
05:35 PM 91.1°F32.8°C 66.4°F19.1°C 44% 4.0 mph ENE6.4 kmh ENE 7.4 mph11.9 kmh 29.31 in992.6 mb 0.00 in0.0 mm 0.00 in0.0 mm 0.00 in0.0 mm
05:40 PM 91.1°F32.8°C 66.1°F18.9°C 44% 1.2 mph NNW1.9 kmh NNW 4.9 mph7.9 kmh 29.31 in992.6 mb 0.00 in0.0 mm 0.00 in0.0 mm 0.00 in0.0 mm
05:45 PM 91.0°F32.8°C 66.7°F19.3°C 45% 4.5 mph NE7.2 kmh NE 7.4 mph11.9 kmh 29.31 in992.6 mb 0.00 in0.0 mm 0.00 in0.0 mm 0.00 in0.0 mm
05:50 PM 90.7°F32.6°C 66.9°F19.4°C 46% 2.3 mph N3.7 kmh N 7.4 mph11.9 kmh 29.31 in992.6 mb 0.00 in0.0 mm 0.00 in0.0 mm 0.00 in0.0 mm
05:55 PM 90.7°F32.6°C 67.2°F19.6°C 46% 4.6 mph NNE7.4 kmh NNE 9.8 mph15.8 kmh 29.30 in992.2 mb 0.00 in0.0 mm 0.00 in0.0 mm 0.00 in0.0 mm
06:00 PM 90.6°F32.6°C 67.0°F19.4°C 46% 4.7 mph NE7.6 kmh NE 12.3 mph19.8 kmh 29.30 in992.2 mb 0.00 in0.0 mm 0.00 in0.0 mm 0.00 in0.0 mm
06:05 PM 90.2°F32.3°C 66.3°F19.1°C 46% 6.4 mph NE10.3 kmh NE 9.8 mph15.8 kmh 29.30 in992.2 mb 0.00 in0.0 mm 0.00 in0.0 mm 0.00 in0.0 mm
06:10 PM 89.8°F32.1°C 65.6°F18.7°C 45% 2.0 mph NE3.2 kmh NE 4.9 mph7.9 kmh 29.31 in992.6 mb 0.00 in0.0 mm 0.00 in0.0 mm 0.00 in0.0 mm
06:15 PM 89.8°F32.1°C 65.8°F18.8°C 45% 2.7 mph E4.3 kmh E 4.9 mph7.9 kmh 29.30 in992.2 mb 0.00 in0.0 mm 0.00 in0.0 mm 0.00 in0.0 mm
06:20 PM 89.8°F32.1°C 66.3°F19.1°C 46% 3.4 mph N5.5 kmh N 7.4 mph11.9 kmh 29.30 in992.2 mb 0.00 in0.0 mm 0.00 in0.0 mm 0.00 in0.0 mm
06:25 PM 89.9°F32.2°C 65.7°F18.7°C 45% 5.7 mph NE9.2 kmh NE 12.3 mph19.8 kmh 29.30 in992.2 mb 0.00 in0.0 mm 0.00 in0.0 mm 0.00 in0.0 mm
06:30 PM 89.8°F32.1°C 64.8°F18.2°C 44% 5.0 mph ENE8.0 kmh ENE 7.4 mph11.9 kmh 29.30 in992.2 mb 0.00 in0.0 mm 0.00 in0.0 mm 0.00 in0.0 mm
06:35 PM 89.8°F32.1°C 66.0°F18.9°C 46% 3.4 mph E5.5 kmh E 9.8 mph15.8 kmh 29.31 in992.6 mb 0.00 in0.0 mm 0.00 in0.0 mm 0.00 in0.0 mm
06:40 PM 89.8°F32.1°C 66.0°F18.9°C 46% 1.7 mph N2.7 kmh N 4.9 mph7.9 kmh 29.30 in992.2 mb 0.00 in0.0 mm 0.00 in0.0 mm 0.00 in0.0 mm
06:45 PM 89.7°F32.1°C 66.3°F19.1°C 46% 3.0 mph NE4.8 kmh NE 4.9 mph7.9 kmh 29.30 in992.2 mb 0.00 in0.0 mm 0.00 in0.0 mm 0.00 in0.0 mm
06:50 PM 89.6°F32.0°C 66.2°F19.0°C 46% 4.2 mph NE6.8 kmh NE 7.4 mph11.9 kmh 29.30 in992.2 mb 0.00 in0.0 mm 0.00 in0.0 mm 0.00 in0.0 mm
06:55 PM 89.6°F32.0°C 65.6°F18.7°C 45% 3.0 mph NE4.8 kmh NE 7.4 mph11.9 kmh 29.31 in992.6 mb 0.00 in0.0 mm 0.00 in0.0 mm 0.00 in0.0 mm
07:00 PM 89.4°F31.9°C 64.2°F17.9°C 43% 3.9 mph NE6.3 kmh NE 7.4 mph11.9 kmh 29.30 in992.2 mb 0.00 in0.0 mm 0.00 in0.0 mm 0.00 in0.0 mm
07:05 PM 89.4°F31.9°C 64.7°F18.2°C 44% 3.4 mph NE5.5 kmh NE 7.4 mph11.9 kmh 29.30 in992.2 mb 0.00 in0.0 mm 0.00 in0.0 mm 0.00 in0.0 mm
07:10 PM 89.2°F31.8°C 64.7°F18.2°C 44% 3.6 mph NE5.8 kmh NE 7.4 mph11.9 kmh 29.31 in992.6 mb 0.00 in0.0 mm 0.00 in0.0 mm 0.00 in0.0 mm
07:15 PM 89.1°F31.7°C 65.7°F18.7°C 46% 2.5 mph NE4.0 kmh NE 9.8 mph15.8 kmh 29.30 in992.2 mb 0.00 in0.0 mm 0.00 in0.0 mm 0.00 in0.0 mm
07:20 PM 89.0°F31.7°C 66.0°F18.9°C 47% 3.3 mph E5.3 kmh E 7.4 mph11.9 kmh 29.30 in992.2 mb 0.00 in0.0 mm 0.00 in0.0 mm 0.00 in0.0 mm
07:25 PM 88.8°F31.6°C 66.3°F19.1°C 48% 2.2 mph N3.5 kmh N 4.9 mph7.9 kmh 29.31 in992.6 mb 0.00 in0.0 mm 0.00 in0.0 mm 0.00 in0.0 mm
07:30 PM 88.5°F31.4°C 66.9°F19.4°C 49% 2.4 mph NNE3.9 kmh NNE 4.9 mph7.9 kmh 29.30 in992.2 mb 0.00 in0.0 mm 0.00 in0.0 mm 0.00 in0.0 mm
07:35 PM 88.5°F31.4°C 66.9°F19.4°C 49% 3.1 mph NE5.0 kmh NE 7.4 mph11.9 kmh 29.30 in992.2 mb 0.00 in0.0 mm 0.00 in0.0 mm 0.00 in0.0 mm
07:40 PM 88.3°F31.3°C 67.7°F19.8°C 51% 2.2 mph NE3.5 kmh NE 7.4 mph11.9 kmh 29.30 in992.2 mb 0.00 in0.0 mm 0.00 in0.0 mm 0.00 in0.0 mm
07:45 PM 88.1°F31.2°C 67.6°F19.8°C 51% 2.5 mph NE4.0 kmh NE 7.4 mph11.9 kmh 29.30 in992.2 mb 0.00 in0.0 mm 0.00 in0.0 mm 0.00 in0.0 mm
07:50 PM 87.4°F30.8°C 67.4°F19.7°C 52% 1.4 mph N2.3 kmh N 2.5 mph4.0 kmh 29.30 in992.2 mb 0.00 in0.0 mm 0.00 in0.0 mm 0.00 in0.0 mm
07:55 PM 87.3°F30.7°C 67.5°F19.7°C 52% 1.7 mph NE2.7 kmh NE 4.9 mph7.9 kmh 29.30 in992.2 mb 0.00 in0.0 mm 0.00 in0.0 mm 0.00 in0.0 mm
08:00 PM 87.2°F30.7°C 67.9°F19.9°C 53% 1.3 mph N2.1 kmh N 2.5 mph4.0 kmh 29.30 in992.2 mb 0.00 in0.0 mm 0.00 in0.0 mm 0.00 in0.0 mm
08:05 PM 86.9°F30.5°C 68.2°F20.1°C 54% 0.3 mph NNE0.5 kmh NNE 4.9 mph7.9 kmh 29.30 in992.2 mb 0.00 in0.0 mm 0.00 in0.0 mm 0.00 in0.0 mm
08:10 PM 86.2°F30.1°C 67.6°F19.8°C 54% 0.3 mph NE0.5 kmh NE 2.5 mph4.0 kmh 29.30 in992.2 mb 0.00 in0.0 mm 0.00 in0.0 mm 0.00 in0.0 mm
08:15 PM 86.0°F30.0°C 67.7°F19.8°C 54% 1.3 mph NE2.1 kmh NE 2.5 mph4.0 kmh 29.30 in992.2 mb 0.00 in0.0 mm 0.00 in0.0 mm 0.00 in0.0 mm
08:20 PM 86.0°F30.0°C 68.6°F20.3°C 56% 1.0 mph N1.6 kmh N 4.9 mph7.9 kmh 29.30 in992.2 mb 0.00 in0.0 mm 0.00 in0.0 mm 0.00 in0.0 mm
08:25 PM 85.8°F29.9°C 68.8°F20.4°C 57% 0.5 mph N0.8 kmh N 2.5 mph4.0 kmh 29.30 in992.2 mb 0.00 in0.0 mm 0.00 in0.0 mm 0.00 in0.0 mm
08:30 PM 84.9°F29.4°C 68.3°F20.2°C 58% 1.1 mph NNE1.8 kmh NNE 4.9 mph7.9 kmh 29.30 in992.2 mb 0.00 in0.0 mm 0.00 in0.0 mm 0.00 in0.0 mm
08:35 PM 84.7°F29.3°C 68.0°F20.0°C 58% 0.3 mph NW0.5 kmh NW 2.5 mph4.0 kmh 29.30 in992.2 mb 0.00 in0.0 mm 0.00 in0.0 mm 0.00 in0.0 mm
08:40 PM 84.7°F29.3°C 68.5°F20.3°C 58% 1.6 mph N2.6 kmh N 4.9 mph7.9 kmh 29.30 in992.2 mb 0.00 in0.0 mm 0.00 in0.0 mm 0.00 in0.0 mm
08:45 PM 84.6°F29.2°C 69.2°F20.7°C 60% 0.9 mph NNW1.4 kmh NNW 2.5 mph4.0 kmh 29.30 in992.2 mb 0.00 in0.0 mm 0.00 in0.0 mm 0.00 in0.0 mm
08:50 PM 83.8°F28.8°C 68.4°F20.2°C 60% 1.3 mph NE2.1 kmh NE 2.5 mph4.0 kmh 29.30 in992.2 mb 0.00 in0.0 mm 0.00 in0.0 mm 0.00 in0.0 mm
08:55 PM 83.8°F28.8°C 68.4°F20.2°C 60% 1.9 mph NE3.1 kmh NE 4.9 mph7.9 kmh 29.30 in992.2 mb 0.00 in0.0 mm 0.00 in0.0 mm 0.00 in0.0 mm
09:00 PM 83.8°F28.8°C 68.5°F20.3°C 60% 1.5 mph NE2.4 kmh NE 2.5 mph4.0 kmh 29.30 in992.2 mb 0.00 in0.0 mm 0.00 in0.0 mm 0.00 in0.0 mm
09:05 PM 83.7°F28.7°C 68.8°F20.4°C 61% 2.0 mph ENE3.2 kmh ENE 4.9 mph7.9 kmh 29.30 in992.2 mb 0.00 in0.0 mm 0.00 in0.0 mm 0.00 in0.0 mm
09:10 PM 83.2°F28.4°C 68.3°F20.2°C 61% 2.0 mph NE3.2 kmh NE 4.9 mph7.9 kmh 29.30 in992.2 mb 0.00 in0.0 mm 0.00 in0.0 mm 0.00 in0.0 mm
09:15 PM 83.1°F28.4°C 68.2°F20.1°C 61% 2.2 mph NE3.5 kmh NE 4.9 mph7.9 kmh 29.30 in992.2 mb 0.00 in0.0 mm 0.00 in0.0 mm 0.00 in0.0 mm
09:20 PM 83.0°F28.3°C 68.2°F20.1°C 61% 1.7 mph NE2.7 kmh NE 4.9 mph7.9 kmh 29.30 in992.2 mb 0.00 in0.0 mm 0.00 in0.0 mm 0.00 in0.0 mm
09:25 PM 82.9°F28.3°C 68.5°F20.3°C 62% 2.1 mph NE3.4 kmh NE 4.9 mph7.9 kmh 29.30 in992.2 mb 0.00 in0.0 mm 0.00 in0.0 mm 0.00 in0.0 mm
09:30 PM 82.4°F28.0°C 68.0°F20.0°C 62% 1.0 mph NE1.6 kmh NE 2.5 mph4.0 kmh 29.31 in992.6 mb 0.00 in0.0 mm 0.00 in0.0 mm 0.00 in0.0 mm
09:35 PM 82.4°F28.0°C 68.0°F20.0°C 62% 1.1 mph E1.8 kmh E 4.9 mph7.9 kmh 29.30 in992.2 mb 0.00 in0.0 mm 0.00 in0.0 mm 0.00 in0.0 mm
09:40 PM 82.4°F28.0°C 68.4°F20.2°C 63% 0.8 mph ENE1.3 kmh ENE 2.5 mph4.0 kmh 29.30 in992.2 mb 0.00 in0.0 mm 0.00 in0.0 mm 0.00 in0.0 mm
09:45 PM 82.3°F27.9°C 68.4°F20.2°C 63% 0.9 mph NNE1.4 kmh NNE 4.9 mph7.9 kmh 29.31 in992.6 mb 0.00 in0.0 mm 0.00 in0.0 mm 0.00 in0.0 mm
09:50 PM 81.9°F27.7°C 68.0°F20.0°C 63% 2.2 mph E3.5 kmh E 4.9 mph7.9 kmh 29.31 in992.6 mb 0.00 in0.0 mm 0.00 in0.0 mm 0.00 in0.0 mm
09:55 PM 81.7°F27.6°C 67.9°F19.9°C 63% 1.7 mph ENE2.7 kmh ENE 4.9 mph7.9 kmh 29.31 in992.6 mb 0.00 in0.0 mm 0.00 in0.0 mm 0.00 in0.0 mm
10:00 PM 81.7°F27.6°C 67.9°F19.9°C 63% 0.9 mph ENE1.4 kmh ENE 2.5 mph4.0 kmh 29.31 in992.6 mb 0.00 in0.0 mm 0.00 in0.0 mm 0.00 in0.0 mm
10:05 PM 81.7°F27.6°C 68.1°F20.1°C 64% 2.1 mph E3.4 kmh E 4.9 mph7.9 kmh 29.32 in992.9 mb 0.00 in0.0 mm 0.00 in0.0 mm 0.00 in0.0 mm
10:10 PM 81.5°F27.5°C 68.1°F20.1°C 64% 1.6 mph NE2.6 kmh NE 4.9 mph7.9 kmh 29.32 in992.9 mb 0.00 in0.0 mm 0.00 in0.0 mm 0.00 in0.0 mm
10:15 PM 81.5°F27.5°C 68.1°F20.1°C 64% 1.1 mph ENE1.8 kmh ENE 2.5 mph4.0 kmh 29.32 in992.9 mb 0.00 in0.0 mm 0.00 in0.0 mm 0.00 in0.0 mm
10:20 PM 81.5°F27.5°C 68.3°F20.2°C 64% 2.0 mph ENE3.2 kmh ENE 4.9 mph7.9 kmh 29.32 in992.9 mb 0.00 in0.0 mm 0.00 in0.0 mm 0.00 in0.0 mm
10:25 PM 81.5°F27.5°C 68.6°F20.3°C 65% 2.3 mph ENE3.7 kmh ENE 7.4 mph11.9 kmh 29.33 in993.2 mb 0.00 in0.0 mm 0.00 in0.0 mm 0.00 in0.0 mm
10:30 PM 81.6°F27.6°C 68.8°F20.4°C 65% 1.2 mph ENE1.9 kmh ENE 2.5 mph4.0 kmh 29.33 in993.2 mb 0.00 in0.0 mm 0.00 in0.0 mm 0.00 in0.0 mm
10:35 PM 81.5°F27.5°C 69.0°F20.6°C 66% 1.3 mph NE2.1 kmh NE 4.9 mph7.9 kmh 29.34 in993.6 mb 0.00 in0.0 mm 0.00 in0.0 mm 0.00 in0.0 mm
10:40 PM 81.5°F27.5°C 69.0°F20.6°C 66% 0.3 mph NW0.5 kmh NW 2.5 mph4.0 kmh 29.34 in993.6 mb 0.00 in0.0 mm 0.00 in0.0 mm 0.00 in0.0 mm
10:45 PM 81.5°F27.5°C 69.5°F20.8°C 67% 1.0 mph NE1.6 kmh NE 2.5 mph4.0 kmh 29.34 in993.6 mb 0.00 in0.0 mm 0.00 in0.0 mm 0.00 in0.0 mm
10:50 PM 81.1°F27.3°C 69.0°F20.6°C 67% 0.9 mph NE1.4 kmh NE 2.5 mph4.0 kmh 29.34 in993.6 mb 0.00 in0.0 mm 0.00 in0.0 mm 0.00 in0.0 mm
10:55 PM 81.0°F27.2°C 69.0°F20.6°C 67% 1.4 mph ENE2.3 kmh ENE 4.9 mph7.9 kmh 29.34 in993.6 mb 0.00 in0.0 mm 0.00 in0.0 mm 0.00 in0.0 mm
11:00 PM 80.9°F27.2°C 69.1°F20.6°C 67% 0.9 mph ENE1.4 kmh ENE 4.9 mph7.9 kmh 29.34 in993.6 mb 0.00 in0.0 mm 0.00 in0.0 mm 0.00 in0.0 mm
11:05 PM 80.8°F27.1°C 69.4°F20.8°C 68% 1.0 mph E1.6 kmh E 4.9 mph7.9 kmh 29.35 in993.9 mb 0.00 in0.0 mm 0.00 in0.0 mm 0.00 in0.0 mm
11:10 PM 80.5°F26.9°C 69.4°F20.8°C 69% 0.4 mph ENE0.6 kmh ENE 2.5 mph4.0 kmh 29.35 in993.9 mb 0.00 in0.0 mm 0.00 in0.0 mm 0.00 in0.0 mm
11:15 PM 80.2°F26.8°C 69.3°F20.7°C 69% 1.1 mph NE1.8 kmh NE 2.5 mph4.0 kmh 29.35 in993.9 mb 0.00 in0.0 mm 0.00 in0.0 mm 0.00 in0.0 mm
11:20 PM 80.2°F26.8°C 69.5°F20.8°C 70% 0.8 mph NNE1.3 kmh NNE 4.9 mph7.9 kmh 29.36 in994.2 mb 0.00 in0.0 mm 0.00 in0.0 mm 0.00 in0.0 mm
11:25 PM 80.1°F26.7°C 69.4°F20.8°C 70% 0.8 mph NNE1.3 kmh NNE 4.9 mph7.9 kmh 29.35 in993.9 mb 0.00 in0.0 mm 0.00 in0.0 mm 0.00 in0.0 mm
11:30 PM 79.5°F26.4°C 69.2°F20.7°C 71% 0.9 mph NE1.4 kmh NE 4.9 mph7.9 kmh 29.36 in994.2 mb 0.00 in0.0 mm 0.00 in0.0 mm 0.00 in0.0 mm
11:35 PM 79.1°F26.2°C 68.8°F20.4°C 71% 0.8 mph ENE1.3 kmh ENE 2.5 mph4.0 kmh 29.36 in994.2 mb 0.00 in0.0 mm 0.00 in0.0 mm 0.00 in0.0 mm
11:40 PM 79.0°F26.1°C 69.1°F20.6°C 72% Calm Calm -- 29.36 in994.2 mb 0.00 in0.0 mm 0.00 in0.0 mm 0.00 in0.0 mm
11:45 PM 79.0°F26.1°C 69.2°F20.7°C 72% Calm Calm -- 29.36 in994.2 mb 0.00 in0.0 mm 0.00 in0.0 mm 0.00 in0.0 mm
11:50 PM 78.8°F26.0°C 69.0°F20.6°C 72% Calm Calm -- 29.36 in994.2 mb 0.00 in0.0 mm 0.00 in0.0 mm 0.00 in0.0 mm
11:55 PM 78.6°F25.9°C 68.8°F20.4°C 72% 0.6 mph ENE1.0 kmh ENE 2.5 mph4.0 kmh 29.35 in993.9 mb 0.00 in0.0 mm 0.00 in0.0 mm 0.00 in0.0 mm